• Join FlightAware (Why Join?)
  • Login
  • US Flag 
10:11PM EST


 

Airport Tracker/Info


-or-


 

Live Flight TrackerFlight Track Log ✈ SWA268 ✈ 04-Apr-2013 ✈ KSNA - KLAS

Flight Track Log - Related Links

Times and Time Zones

All times are in EDT time to prevent confusion due to time zone crossing. See the SWA268 flight status page for this flight to view local times or setup timezone preferences in your user account.

Time Position Orientation Groundspeed Altitude Reporting Facility
EDT Latitude Longitude Course Direction KTS MPH feet Rate Location/Type
12:07PM 33.6500 -117.8833 196° South 145 167 1,400  Level Southern California TRACON
12:08PM 33.6181 -117.8942 196° South 149 171 2,600 1,740 Climbing Los Angeles Center
12:09PM 33.5572 -117.9014 186° South 177 204 5,000 2,160 Climbing Los Angeles Center
12:10PM 33.5189 -117.9725 237° Southwest 251 289 7,100 2,700 Climbing Los Angeles Center
12:11PM 33.5372 -118.0617 284° West 267 307 10,700 3,000 Climbing Los Angeles Center
12:12PM 33.5889 -118.1400 308° West 316 364 13,400 2,880 Climbing Los Angeles Center
12:13PM 33.6833 -118.0997 20° North 365 420 16,700 3,240 Climbing Los Angeles Center
12:14PM 33.8008 -118.0383 23° Northeast 386 444 20,100 2,820 Climbing Los Angeles Center
12:15PM 33.8939 -117.9544 37° Northeast 414 476 22,600 1,860 Climbing Los Angeles Center
12:16PM 33.9894 -117.8678 37° Northeast 428 493 24,000 660 Climbing Los Angeles Center
12:17PM 34.0850 -117.7789 38° Northeast 433 498 24,000  Level Los Angeles Center
12:18PM 34.1633 -117.6736 48° Northeast 421 484 24,000 240 Level Los Angeles Center
12:19PM 34.2408 -117.5675 49° Northeast 422 486 24,500 1,440 Climbing Los Angeles Center
12:20PM 34.3367 -117.4381 48° Northeast 430 495 27,000 1,200 Climbing Los Angeles Center
12:21PM 34.4047 -117.3442 49° Northeast 436 502 27,000  Level Los Angeles Center
12:23PM 34.5008 -117.2122 49° Northeast 438 504 27,000  Level Los Angeles Center
12:24PM 34.5797 -117.1042 48° Northeast 434 499 27,000  Level Los Angeles Center
12:25PM 34.6597 -116.9947 48° Northeast 435 501 27,000  Level Los Angeles Center
12:26PM 34.7397 -116.8839 49° Northeast 437 503 27,000  Level Los Angeles Center
12:27PM 34.8197 -116.7733 49° Northeast 438 504 27,000  Level Los Angeles Center
12:28PM 34.9008 -116.6619 48° Northeast 441 507 27,000 -120 Level Los Angeles Center
12:29PM 34.9983 -116.5292 48° Northeast 442 509 26,800 -1,320 Descending Los Angeles Center
12:30PM 35.0806 -116.4275 45° Northeast 429 494 24,400 -1,380 Descending Los Angeles Center
12:31PM 35.1622 -116.3256 46° Northeast 423 487 24,000 -540 Descending Los Angeles Center
12:32PM 35.2433 -116.2250 45° Northeast 417 480 23,300 -1,500 Descending Los Angeles Center
12:33PM 35.3369 -116.1039 47° Northeast 410 472 21,000 -2,160 Descending Los Angeles Center
12:34PM 35.4147 -116.0075 45° Northeast 400 460 18,900 -1,860 Descending Los Angeles Center
12:35PM 35.5047 -115.8933 46° Northeast 378 435 16,900 -1,620 Descending Los Angeles Center
12:36PM 35.5547 -115.8292 46° Northeast 369 425 15,600 -1,800 Descending Los Angeles Center
12:37PM 35.6531 -115.7089 45° Northeast 367 422 13,100 -1,260 Descending Los Angeles Center
12:38PM 35.7067 -115.6369 47° Northeast 352 405 13,000 -60 Descending Los Angeles Center
12:39PM 35.7797 -115.5753 34° Northeast 305 351 13,000  Level Los Angeles Center
12:40PM 35.8589 -115.5742 North 280 322 13,000  Level Los Angeles Center
12:41PM 35.9353 -115.5800 356° North 275 316 13,000 -360 Level Los Angeles Center
12:42PM 36.0158 -115.5839 358° North 271 312 12,300 -840 Descending Los Angeles Center
12:43PM 36.0892 -115.5600 15° North 269 310 11,200 -660 Descending Los Angeles Center
12:44PM 36.0747 -115.4719 101° East 253 291 11,000 -120 Descending Los Angeles Center
12:45PM 36.0378 -115.3908 119° Southeast 254 292 11,000 -360 Level Los Angeles Center
12:46PM 36.0253 -115.3125 101° East 259 298 10,300 -900 Descending Los Angeles Center
12:47PM 36.0197 -115.2267 95° East 251 289 9,300 -840 Descending Los Angeles Center
12:48PM 36.0192 -115.2211 97° East 252 290 9,200 -1,020 Descending Los Angeles Center
12:48PM 36.0133 -115.1383 95° East 242 278 8,300 -1,200 Descending Los Angeles Center
12:49PM 36.0114 -115.1064 94° East 243 280 8,000 -300 Descending Los Angeles Center
12:49PM 36.0083 -115.0656 95° East 204 235 8,000 -240 Level Los Angeles Center
12:50PM 36.0069 -115.0364 93° East 218 251 7,800 -780 Descending Los Angeles Center
12:50PM 36.0100 -115.0039 83° East 200 230 7,300 -1,020 Descending Los Angeles Center
12:51PM 36.0125 -114.9700 85° East 204 235 6,800 -1,140 Descending Los Angeles Center
12:51PM 36.0269 -114.9425 57° Northeast 207 238 6,200 -1,200 Descending Los Angeles Center
12:52PM 36.0517 -114.9464 353° North 218 251 5,600 -1,200 Descending Los Angeles Center
12:52PM 36.0631 -114.9703 301° West 190 219 5,100 -1,500 Descending Los Angeles Center
12:53PM 36.0750 -115.0019 295° West 195 224 4,100 -1,500 Descending Los Angeles Center
12:53PM 36.0747 -115.0331 269° West 178 205 3,600 -1,020 Descending Los Angeles Center
12:54PM 36.0739 -115.0594 268° West 177 204 3,100 -900 Descending Los Angeles Center
12:54PM 36.0725 -115.0922 267° West 152 175 2,600 -900 Descending Los Angeles Center
12:55PM 36.0728 -115.1219 271° West 162 186 2,200 -720 Descending Los Angeles Center
12:57PM 36.0667 -115.1500 270° West  Level FlightAware Approximate